sensor_id;sensor_type;location;lat;lon;timestamp;pressure;altitude;pressure_sealevel;temperature;humidity
21111;BME280;10713;51.912;4.494;2022-12-18T00:01:28;102753.34;;;-1.59;100.00
21111;BME280;10713;51.912;4.494;2022-12-18T00:03:55;102745.31;;;-1.65;100.00
21111;BME280;10713;51.912;4.494;2022-12-18T00:06:22;102747.09;;;-1.64;100.00
21111;BME280;10713;51.912;4.494;2022-12-18T00:08:48;102745.50;;;-1.82;100.00
21111;BME280;10713;51.912;4.494;2022-12-18T00:11:16;102739.38;;;-1.84;100.00
21111;BME280;10713;51.912;4.494;2022-12-18T00:13:41;102736.47;;;-1.91;100.00
21111;BME280;10713;51.912;4.494;2022-12-18T00:16:09;102738.25;;;-2.10;100.00
21111;BME280;10713;51.912;4.494;2022-12-18T00:18:35;102756.22;;;-1.93;100.00
21111;BME280;10713;51.912;4.494;2022-12-18T00:21:03;102751.06;;;-1.93;100.00
21111;BME280;10713;51.912;4.494;2022-12-18T00:23:29;102749.97;;;-1.98;100.00
21111;BME280;10713;51.912;4.494;2022-12-18T00:25:59;102755.22;;;-1.97;100.00
21111;BME280;10713;51.912;4.494;2022-12-18T00:28:24;102749.69;;;-2.05;100.00
21111;BME280;10713;51.912;4.494;2022-12-18T00:30:50;102743.44;;;-2.10;100.00
21111;BME280;10713;51.912;4.494;2022-12-18T00:33:17;102737.84;;;-1.99;100.00
21111;BME280;10713;51.912;4.494;2022-12-18T00:35:42;102746.00;;;-1.90;100.00
21111;BME280;10713;51.912;4.494;2022-12-18T00:38:07;102746.09;;;-1.89;100.00
21111;BME280;10713;51.912;4.494;2022-12-18T00:40:33;102744.75;;;-2.00;100.00
21111;BME280;10713;51.912;4.494;2022-12-18T00:42:58;102740.53;;;-2.17;100.00
21111;BME280;10713;51.912;4.494;2022-12-18T00:45:29;102750.69;;;-2.22;100.00
21111;BME280;10713;51.912;4.494;2022-12-18T00:47:55;102738.56;;;-2.23;100.00
21111;BME280;10713;51.912;4.494;2022-12-18T00:50:22;102743.66;;;-2.24;100.00
21111;BME280;10713;51.912;4.494;2022-12-18T00:52:48;102749.25;;;-2.35;100.00
21111;BME280;10713;51.912;4.494;2022-12-18T00:55:13;102752.03;;;-2.30;100.00
21111;BME280;10713;51.912;4.494;2022-12-18T00:57:39;102761.56;;;-2.29;100.00
21111;BME280;10713;51.912;4.494;2022-12-18T01:00:07;102763.00;;;-2.36;100.00
21111;BME280;10713;51.912;4.494;2022-12-18T01:02:33;102744.91;;;-2.36;100.00
21111;BME280;10713;51.912;4.494;2022-12-18T01:04:58;102744.97;;;-2.34;100.00
21111;BME280;10713;51.912;4.494;2022-12-18T01:07:24;102736.88;;;-2.42;100.00
21111;BME280;10713;51.912;4.494;2022-12-18T01:09:49;102731.44;;;-2.48;100.00
21111;BME280;10713;51.912;4.494;2022-12-18T01:12:15;102735.44;;;-2.35;100.00
21111;BME280;10713;51.912;4.494;2022-12-18T01:14:40;102745.25;;;-2.28;100.00
21111;BME280;10713;51.912;4.494;2022-12-18T01:17:05;102748.94;;;-2.23;100.00
21111;BME280;10713;51.912;4.494;2022-12-18T01:19:31;102763.00;;;-2.36;100.00
21111;BME280;10713;51.912;4.494;2022-12-18T01:21:56;102758.53;;;-2.40;100.00
21111;BME280;10713;51.912;4.494;2022-12-18T01:24:22;102763.84;;;-2.37;100.00
21111;BME280;10713;51.912;4.494;2022-12-18T01:26:47;102752.47;;;-2.40;100.00
21111;BME280;10713;51.912;4.494;2022-12-18T01:29:12;102761.78;;;-2.44;100.00
21111;BME280;10713;51.912;4.494;2022-12-18T01:31:38;102752.38;;;-2.42;100.00
21111;BME280;10713;51.912;4.494;2022-12-18T01:34:04;102755.25;;;-2.36;100.00
21111;BME280;10713;51.912;4.494;2022-12-18T01:36:32;102748.56;;;-2.50;100.00
21111;BME280;10713;51.912;4.494;2022-12-18T01:39:04;102761.63;;;-2.47;100.00
21111;BME280;10713;51.912;4.494;2022-12-18T01:41:32;102765.78;;;-2.51;100.00
21111;BME280;10713;51.912;4.494;2022-12-18T01:52:41;102780.09;;;-2.39;100.00
21111;BME280;10713;51.912;4.494;2022-12-18T01:55:09;102782.47;;;-2.24;100.00
21111;BME280;10713;51.912;4.494;2022-12-18T01:57:35;102784.84;;;-2.29;100.00
21111;BME280;10713;51.912;4.494;2022-12-18T02:00:06;102784.16;;;-2.44;100.00
21111;BME280;10713;51.912;4.494;2022-12-18T02:02:32;102792.34;;;-2.55;100.00
21111;BME280;10713;51.912;4.494;2022-12-18T02:04:57;102792.25;;;-2.56;100.00
21111;BME280;10713;51.912;4.494;2022-12-18T02:07:36;102786.88;;;-2.61;100.00
21111;BME280;10713;51.912;4.494;2022-12-18T02:15:24;102771.97;;;-2.66;100.00
21111;BME280;10713;51.912;4.494;2022-12-18T02:17:57;102776.72;;;-2.76;100.00
21111;BME280;10713;51.912;4.494;2022-12-18T02:20:33;102767.47;;;-2.70;100.00
21111;BME280;10713;51.912;4.494;2022-12-18T02:26:07;102762.44;;;-2.67;100.00
21111;BME280;10713;51.912;4.494;2022-12-18T02:28:38;102767.84;;;-2.63;100.00
21111;BME280;10713;51.912;4.494;2022-12-18T02:31:08;102768.03;;;-2.58;100.00
21111;BME280;10713;51.912;4.494;2022-12-18T02:33:36;102766.31;;;-2.58;100.00
21111;BME280;10713;51.912;4.494;2022-12-18T02:36:03;102775.66;;;-2.61;100.00
21111;BME280;10713;51.912;4.494;2022-12-18T02:38:30;102783.81;;;-2.52;100.00
21111;BME280;10713;51.912;4.494;2022-12-18T02:40:56;102778.63;;;-2.52;100.00
21111;BME280;10713;51.912;4.494;2022-12-18T02:43:22;102772.66;;;-2.51;100.00
21111;BME280;10713;51.912;4.494;2022-12-18T02:45:56;102757.91;;;-2.54;100.00
21111;BME280;10713;51.912;4.494;2022-12-18T02:48:26;102759.13;;;-2.65;100.00
21111;BME280;10713;51.912;4.494;2022-12-18T02:51:28;102752.19;;;-2.66;100.00
21111;BME280;10713;51.912;4.494;2022-12-18T02:54:05;102740.19;;;-2.64;100.00
21111;BME280;10713;51.912;4.494;2022-12-18T02:56:46;102742.78;;;-2.64;100.00
21111;BME280;10713;51.912;4.494;2022-12-18T02:59:17;102741.53;;;-2.72;100.00
21111;BME280;10713;51.912;4.494;2022-12-18T03:02:18;102741.88;;;-2.84;100.00
21111;BME280;10713;51.912;4.494;2022-12-18T03:05:01;102731.38;;;-2.87;100.00
21111;BME280;10713;51.912;4.494;2022-12-18T03:07:38;102728.00;;;-2.86;100.00
21111;BME280;10713;51.912;4.494;2022-12-18T03:10:06;102731.09;;;-2.93;100.00
21111;BME280;10713;51.912;4.494;2022-12-18T03:12:38;102730.28;;;-2.92;100.00
21111;BME280;10713;51.912;4.494;2022-12-18T03:15:19;102717.97;;;-2.98;100.00
21111;BME280;10713;51.912;4.494;2022-12-18T03:17:52;102722.84;;;-3.23;100.00
21111;BME280;10713;51.912;4.494;2022-12-18T03:20:22;102723.94;;;-3.36;100.00
21111;BME280;10713;51.912;4.494;2022-12-18T03:22:53;102727.03;;;-3.43;100.00
21111;BME280;10713;51.912;4.494;2022-12-18T03:25:21;102723.06;;;-3.54;100.00
21111;BME280;10713;51.912;4.494;2022-12-18T03:27:49;102718.47;;;-3.60;100.00
21111;BME280;10713;51.912;4.494;2022-12-18T03:30:15;102713.16;;;-3.63;100.00
21111;BME280;10713;51.912;4.494;2022-12-18T03:32:48;102715.91;;;-3.60;100.00
21111;BME280;10713;51.912;4.494;2022-12-18T03:35:19;102712.59;;;-3.57;100.00
21111;BME280;10713;51.912;4.494;2022-12-18T03:37:46;102712.50;;;-3.59;100.00
21111;BME280;10713;51.912;4.494;2022-12-18T03:40:12;102705.03;;;-3.53;100.00
21111;BME280;10713;51.912;4.494;2022-12-18T03:47:47;102717.91;;;-3.54;100.00
21111;BME280;10713;51.912;4.494;2022-12-18T03:50:22;102724.00;;;-3.52;100.00
21111;BME280;10713;51.912;4.494;2022-12-18T03:52:59;102708.00;;;-3.45;100.00
21111;BME280;10713;51.912;4.494;2022-12-18T03:55:27;102713.31;;;-3.42;100.00
21111;BME280;10713;51.912;4.494;2022-12-18T03:57:56;102716.72;;;-3.43;100.00
21111;BME280;10713;51.912;4.494;2022-12-18T04:00:22;102710.50;;;-3.47;100.00
21111;BME280;10713;51.912;4.494;2022-12-18T04:02:51;102700.16;;;-3.47;100.00
21111;BME280;10713;51.912;4.494;2022-12-18T04:05:19;102707.13;;;-3.46;100.00
21111;BME280;10713;51.912;4.494;2022-12-18T04:07:47;102711.09;;;-3.52;100.00
21111;BME280;10713;51.912;4.494;2022-12-18T04:10:14;102704.97;;;-3.54;100.00
21111;BME280;10713;51.912;4.494;2022-12-18T04:12:39;102706.88;;;-3.50;100.00
21111;BME280;10713;51.912;4.494;2022-12-18T04:15:06;102712.59;;;-3.57;100.00
21111;BME280;10713;51.912;4.494;2022-12-18T04:17:32;102715.38;;;-3.53;100.00
21111;BME280;10713;51.912;4.494;2022-12-18T04:19:57;102710.50;;;-3.47;100.00
21111;BME280;10713;51.912;4.494;2022-12-18T04:22:22;102712.34;;;-3.44;100.00
21111;BME280;10713;51.912;4.494;2022-12-18T04:24:47;102712.34;;;-3.44;100.00
21111;BME280;10713;51.912;4.494;2022-12-18T04:27:13;102712.94;;;-3.50;100.00
21111;BME280;10713;51.912;4.494;2022-12-18T04:29:39;102720.81;;;-3.47;100.00
21111;BME280;10713;51.912;4.494;2022-12-18T04:32:04;102719.66;;;-3.53;100.00
21111;BME280;10713;51.912;4.494;2022-12-18T04:34:30;102727.31;;;-3.55;100.00
21111;BME280;10713;51.912;4.494;2022-12-18T04:36:56;102718.75;;;-3.36;100.00
21111;BME280;10713;51.912;4.494;2022-12-18T04:39:21;102717.78;;;-3.38;100.00
21111;BME280;10713;51.912;4.494;2022-12-18T04:41:46;102710.19;;;-3.35;100.00
21111;BME280;10713;51.912;4.494;2022-12-18T04:44:11;102719.56;;;-3.19;100.00
21111;BME280;10713;51.912;4.494;2022-12-18T04:46:37;102710.66;;;-3.06;100.00
21111;BME280;10713;51.912;4.494;2022-12-18T04:49:02;102713.75;;;-3.33;100.00
21111;BME280;10713;51.912;4.494;2022-12-18T04:51:27;102718.41;;;-3.26;100.00
21111;BME280;10713;51.912;4.494;2022-12-18T04:53:53;102705.78;;;-3.20;100.00
21111;BME280;10713;51.912;4.494;2022-12-18T04:56:19;102710.44;;;-3.30;100.00
21111;BME280;10713;51.912;4.494;2022-12-18T04:58:44;102713.88;;;-3.30;100.00
21111;BME280;10713;51.912;4.494;2022-12-18T05:01:14;102711.44;;;-3.27;100.00
21111;BME280;10713;51.912;4.494;2022-12-18T05:03:40;102704.66;;;-3.25;100.00
21111;BME280;10713;51.912;4.494;2022-12-18T05:06:06;102705.13;;;-3.33;100.00
21111;BME280;10713;51.912;4.494;2022-12-18T05:08:32;102719.28;;;-3.25;100.00
21111;BME280;10713;51.912;4.494;2022-12-18T05:11:14;102706.56;;;-3.21;100.00
21111;BME280;10713;51.912;4.494;2022-12-18T05:13:41;102715.69;;;-3.29;100.00
21111;BME280;10713;51.912;4.494;2022-12-18T05:16:07;102718.13;;;-3.32;100.00
21111;BME280;10713;51.912;4.494;2022-12-18T05:18:33;102714.75;;;-3.29;100.00
21111;BME280;10713;51.912;4.494;2022-12-18T05:20:59;102709.41;;;-3.34;100.00
21111;BME280;10713;51.912;4.494;2022-12-18T05:23:25;102705.13;;;-3.33;100.00
21111;BME280;10713;51.912;4.494;2022-12-18T05:26:01;102695.91;;;-3.28;100.00
21111;BME280;10713;51.912;4.494;2022-12-18T05:28:28;102698.34;;;-3.31;100.00
21111;BME280;10713;51.912;4.494;2022-12-18T05:30:56;102695.16;;;-3.26;100.00
21111;BME280;10713;51.912;4.494;2022-12-18T05:33:23;102694.25;;;-3.26;100.00
21111;BME280;10713;51.912;4.494;2022-12-18T05:35:53;102691.00;;;-3.22;100.00
21111;BME280;10713;51.912;4.494;2022-12-18T05:38:20;102697.94;;;-3.21;100.00
21111;BME280;10713;51.912;4.494;2022-12-18T05:40:46;102697.94;;;-3.21;100.00
21111;BME280;10713;51.912;4.494;2022-12-18T05:43:12;102697.94;;;-3.21;100.00
21111;BME280;10713;51.912;4.494;2022-12-18T05:45:38;102698.75;;;-3.22;100.00
21111;BME280;10713;51.912;4.494;2022-12-18T05:48:04;102690.28;;;-3.20;100.00
21111;BME280;10713;51.912;4.494;2022-12-18T05:50:30;102700.38;;;-3.24;100.00
21111;BME280;10713;51.912;4.494;2022-12-18T05:52:55;102694.47;;;-3.22;100.00
21111;BME280;10713;51.912;4.494;2022-12-18T05:55:21;102689.53;;;-3.17;100.00
21111;BME280;10713;51.912;4.494;2022-12-18T05:57:46;102684.69;;;-3.29;100.00
21111;BME280;10713;51.912;4.494;2022-12-18T06:00:12;102684.88;;;-3.24;100.00
21111;BME280;10713;51.912;4.494;2022-12-18T06:02:38;102687.59;;;-3.21;100.00
21111;BME280;10713;51.912;4.494;2022-12-18T06:05:03;102691.88;;;-3.22;100.00
21111;BME280;10713;51.912;4.494;2022-12-18T06:07:29;102681.41;;;-3.25;100.00
21111;BME280;10713;51.912;4.494;2022-12-18T06:09:54;102678.56;;;-3.31;100.00
21111;BME280;10713;51.912;4.494;2022-12-18T06:12:19;102676.13;;;-3.28;100.00
21111;BME280;10713;51.912;4.494;2022-12-18T06:14:45;102661.06;;;-3.36;100.00
21111;BME280;10713;51.912;4.494;2022-12-18T06:17:10;102653.97;;;-3.41;100.00
21111;BME280;10713;51.912;4.494;2022-12-18T06:19:35;102659.44;;;-3.52;100.00
21111;BME280;10713;51.912;4.494;2022-12-18T06:22:01;102646.53;;;-3.52;100.00
21111;BME280;10713;51.912;4.494;2022-12-18T06:24:26;102652.53;;;-3.53;100.00
21111;BME280;10713;51.912;4.494;2022-12-18T06:26:51;102654.59;;;-3.64;100.00
21111;BME280;10713;51.912;4.494;2022-12-18T06:29:17;102659.31;;;-3.55;100.00
21111;BME280;10713;51.912;4.494;2022-12-18T06:31:42;102652.53;;;-3.53;100.00
21111;BME280;10713;51.912;4.494;2022-12-18T06:34:07;102660.41;;;-3.50;100.00
21111;BME280;10713;51.912;4.494;2022-12-18T06:36:33;102654.97;;;-3.56;100.00
21111;BME280;10713;51.912;4.494;2022-12-18T06:38:59;102650.53;;;-3.59;100.00
21111;BME280;10713;51.912;4.494;2022-12-18T06:41:24;102659.09;;;-3.60;100.00
21111;BME280;10713;51.912;4.494;2022-12-18T06:43:50;102645.22;;;-3.62;100.00
21111;BME280;10713;51.912;4.494;2022-12-18T06:46:15;102646.72;;;-3.67;100.00
21111;BME280;10713;51.912;4.494;2022-12-18T06:48:41;102642.41;;;-3.67;100.00
21111;BME280;10713;51.912;4.494;2022-12-18T06:51:06;102636.03;;;-3.75;100.00
21111;BME280;10713;51.912;4.494;2022-12-18T06:53:32;102626.44;;;-3.77;100.00
21111;BME280;10713;51.912;4.494;2022-12-18T06:56:06;102625.38;;;-3.81;100.00
21111;BME280;10713;51.912;4.494;2022-12-18T06:58:32;102623.84;;;-3.95;100.00
21111;BME280;10713;51.912;4.494;2022-12-18T07:01:06;102622.97;;;-3.96;100.00
21111;BME280;10713;51.912;4.494;2022-12-18T07:03:32;102614.78;;;-4.05;100.00
21111;BME280;10713;51.912;4.494;2022-12-18T07:05:58;102613.03;;;-4.06;100.00
21111;BME280;10713;51.912;4.494;2022-12-18T07:08:23;102609.63;;;-4.05;100.00
21111;BME280;10713;51.912;4.494;2022-12-18T07:10:48;102608.50;;;-4.10;100.00
21111;BME280;10713;51.912;4.494;2022-12-18T07:13:15;102601.66;;;-4.10;100.00
21111;BME280;10713;51.912;4.494;2022-12-18T07:15:41;102593.03;;;-4.10;100.00
21111;BME280;10713;51.912;4.494;2022-12-18T07:18:06;102581.94;;;-4.09;100.00
21111;BME280;10713;51.912;4.494;2022-12-18T07:20:31;102574.09;;;-4.11;100.00
21111;BME280;10713;51.912;4.494;2022-12-18T07:22:57;102567.91;;;-4.14;100.00
21111;BME280;10713;51.912;4.494;2022-12-18T07:25:22;102558.47;;;-4.14;100.00
21111;BME280;10713;51.912;4.494;2022-12-18T07:27:48;102548.16;;;-4.14;100.00
21111;BME280;10713;51.912;4.494;2022-12-18T07:30:13;102547.63;;;-4.07;100.00
21111;BME280;10713;51.912;4.494;2022-12-18T07:32:38;102554.00;;;-4.00;100.00
21111;BME280;10713;51.912;4.494;2022-12-18T07:35:04;102553.16;;;-3.99;100.00
21111;BME280;10713;51.912;4.494;2022-12-18T07:37:29;102552.28;;;-3.99;100.00
21111;BME280;10713;51.912;4.494;2022-12-18T07:39:55;102550.44;;;-4.02;100.00
21111;BME280;10713;51.912;4.494;2022-12-18T07:42:20;102557.44;;;-3.99;100.00
21111;BME280;10713;51.912;4.494;2022-12-18T07:44:59;102564.16;;;-4.03;100.00
21111;BME280;10713;51.912;4.494;2022-12-18T07:47:25;102559.06;;;-4.01;100.00
21111;BME280;10713;51.912;4.494;2022-12-18T07:49:50;102557.59;;;-3.96;100.00
21111;BME280;10713;51.912;4.494;2022-12-18T07:52:15;102561.88;;;-3.97;100.00
21111;BME280;10713;51.912;4.494;2022-12-18T07:54:41;102552.56;;;-3.93;100.00
21111;BME280;10713;51.912;4.494;2022-12-18T07:57:07;102551.69;;;-3.94;100.00
21111;BME280;10713;51.912;4.494;2022-12-18T07:59:33;102545.06;;;-3.89;100.00
21111;BME280;10713;51.912;4.494;2022-12-18T08:01:58;102541.75;;;-3.86;100.00
21111;BME280;10713;51.912;4.494;2022-12-18T08:04:24;102546.22;;;-3.82;100.00
21111;BME280;10713;51.912;4.494;2022-12-18T08:06:49;102549.69;;;-3.81;100.00
21111;BME280;10713;51.912;4.494;2022-12-18T08:09:15;102541.34;;;-3.76;100.00
21111;BME280;10713;51.912;4.494;2022-12-18T08:11:40;102540.69;;;-3.72;100.00
21111;BME280;10713;51.912;4.494;2022-12-18T08:14:05;102540.28;;;-3.62;100.00
21111;BME280;10713;51.912;4.494;2022-12-18T08:16:31;102534.50;;;-3.56;100.00
21111;BME280;10713;51.912;4.494;2022-12-18T08:18:56;102540.22;;;-3.44;100.00
21111;BME280;10713;51.912;4.494;2022-12-18T08:21:24;102531.00;;;-3.19;100.00
21111;BME280;10713;51.912;4.494;2022-12-18T08:23:53;102531.47;;;-3.08;100.00
21111;BME280;10713;51.912;4.494;2022-12-18T08:26:19;102528.78;;;-2.90;100.00
21111;BME280;10713;51.912;4.494;2022-12-18T08:28:45;102539.72;;;-2.77;100.00
21111;BME280;10713;51.912;4.494;2022-12-18T08:31:10;102538.72;;;-2.80;100.00
21111;BME280;10713;51.912;4.494;2022-12-18T08:33:37;102541.34;;;-2.79;100.00
21111;BME280;10713;51.912;4.494;2022-12-18T08:36:03;102538.97;;;-2.74;100.00
21111;BME280;10713;51.912;4.494;2022-12-18T08:38:29;102542.31;;;-2.56;100.00
21111;BME280;10713;51.912;4.494;2022-12-18T08:41:04;102547.69;;;-2.51;100.00
21111;BME280;10713;51.912;4.494;2022-12-18T08:43:31;102541.31;;;-2.59;100.00
21111;BME280;10713;51.912;4.494;2022-12-18T08:46:15;102552.66;;;-2.56;100.00
21111;BME280;10713;51.912;4.494;2022-12-18T08:48:41;102552.91;;;-2.50;100.00
21111;BME280;10713;51.912;4.494;2022-12-18T08:51:06;102566.06;;;-2.45;100.00
21111;BME280;10713;51.912;4.494;2022-12-18T08:53:32;102581.81;;;-2.39;100.00
21111;BME280;10713;51.912;4.494;2022-12-18T08:55:57;102581.41;;;-2.29;100.00
21111;BME280;10713;51.912;4.494;2022-12-18T08:58:23;102578.81;;;-2.29;100.00
21111;BME280;10713;51.912;4.494;2022-12-18T09:00:48;102583.28;;;-2.24;100.00
21111;BME280;10713;51.912;4.494;2022-12-18T09:03:15;102582.19;;;-2.09;100.00
21111;BME280;10713;51.912;4.494;2022-12-18T09:05:41;102574.03;;;-2.18;100.00
21111;BME280;10713;51.912;4.494;2022-12-18T09:08:06;102557.88;;;-2.12;100.00
21111;BME280;10713;51.912;4.494;2022-12-18T09:10:32;102550.50;;;-2.24;100.00
21111;BME280;10713;51.912;4.494;2022-12-18T09:12:57;102549.06;;;-2.38;100.00
21111;BME280;10713;51.912;4.494;2022-12-18T09:15:23;102537.28;;;-2.53;100.00
21111;BME280;10713;51.912;4.494;2022-12-18T09:17:48;102532.97;;;-2.52;100.00
21111;BME280;10713;51.912;4.494;2022-12-18T09:20:15;102519.38;;;-2.48;100.00
21111;BME280;10713;51.912;4.494;2022-12-18T09:22:40;102501.28;;;-2.48;100.00
21111;BME280;10713;51.912;4.494;2022-12-18T09:25:06;102497.19;;;-2.43;100.00
21111;BME280;10713;51.912;4.494;2022-12-18T09:27:33;102517.75;;;-2.46;100.00
21111;BME280;10713;51.912;4.494;2022-12-18T09:29:59;102516.72;;;-2.50;100.00
21111;BME280;10713;51.912;4.494;2022-12-18T09:32:25;102515.84;;;-2.50;100.00
21111;BME280;10713;51.912;4.494;2022-12-18T09:34:50;102511.28;;;-2.56;100.00
21111;BME280;10713;51.912;4.494;2022-12-18T09:37:15;102517.66;;;-2.47;100.00
21111;BME280;10713;51.912;4.494;2022-12-18T09:39:41;102531.34;;;-2.50;100.00
21111;BME280;10713;51.912;4.494;2022-12-18T09:42:16;102525.50;;;-2.46;100.00
21111;BME280;10713;51.912;4.494;2022-12-18T09:44:45;102528.22;;;-2.43;100.00
21111;BME280;10713;51.912;4.494;2022-12-18T09:47:37;102529.97;;;-2.42;100.00
21111;BME280;10713;51.912;4.494;2022-12-18T09:50:15;102531.53;;;-2.24;100.00
21111;BME280;10713;51.912;4.494;2022-12-18T09:52:47;102525.59;;;-2.22;100.00
21111;BME280;10713;51.912;4.494;2022-12-18T09:55:23;102525.63;;;-2.20;100.00
21111;BME280;10713;51.912;4.494;2022-12-18T09:57:53;102522.38;;;-2.16;100.00
21111;BME280;10713;51.912;4.494;2022-12-18T10:00:23;102516.44;;;-2.14;100.00
21111;BME280;10713;51.912;4.494;2022-12-18T10:02:51;102520.03;;;-2.10;100.00
21111;BME280;10713;51.912;4.494;2022-12-18T10:05:33;102519.56;;;-2.00;100.00
21111;BME280;10713;51.912;4.494;2022-12-18T10:13:07;102494.72;;;-1.72;100.00
21111;BME280;10713;51.912;4.494;2022-12-18T10:15:49;102479.88;;;-1.54;100.00
21111;BME280;10713;51.912;4.494;2022-12-18T10:20:51;102467.19;;;-1.46;100.00
21111;BME280;10713;51.912;4.494;2022-12-18T10:28:20;102461.31;;;-1.42;100.00
21111;BME280;10713;51.912;4.494;2022-12-18T10:30:46;102455.25;;;-1.43;100.00
21111;BME280;10713;51.912;4.494;2022-12-18T10:33:23;102447.31;;;-1.47;100.00
21111;BME280;10713;51.912;4.494;2022-12-18T10:35:52;102466.16;;;-1.51;100.00
21111;BME280;10713;51.912;4.494;2022-12-18T10:40:58;102471.09;;;-1.58;100.00
21111;BME280;10713;51.912;4.494;2022-12-18T10:43:25;102457.94;;;-1.64;100.00
21111;BME280;10713;51.912;4.494;2022-12-18T10:48:24;102446.16;;;-1.55;100.00
21111;BME280;10713;51.912;4.494;2022-12-18T10:50:51;102458.44;;;-1.50;100.00
21111;BME280;10713;51.912;4.494;2022-12-18T10:53:25;102459.16;;;-1.54;100.00
21111;BME280;10713;51.912;4.494;2022-12-18T10:55:54;102455.16;;;-1.46;100.00
21111;BME280;10713;51.912;4.494;2022-12-18T11:01:15;102448.47;;;-1.39;100.00
21111;BME280;10713;51.912;4.494;2022-12-18T11:04:00;102456.34;;;-1.36;100.00
21111;BME280;10713;51.912;4.494;2022-12-18T11:06:26;102452.00;;;-1.37;100.00
21111;BME280;10713;51.912;4.494;2022-12-18T11:11:27;102442.66;;;-1.32;100.00
21111;BME280;10713;51.912;4.494;2022-12-18T11:16:32;102444.66;;;-1.25;100.00
21111;BME280;10713;51.912;4.494;2022-12-18T11:19:19;102439.56;;;-1.22;100.00
21111;BME280;10713;51.912;4.494;2022-12-18T11:21:47;102443.16;;;-1.18;100.00
21111;BME280;10713;51.912;4.494;2022-12-18T11:24:39;102443.25;;;-1.15;100.00
21111;BME280;10713;51.912;4.494;2022-12-18T11:27:05;102430.06;;;-1.23;100.00
21111;BME280;10713;51.912;4.494;2022-12-18T11:29:40;102425.63;;;-1.25;100.00
21111;BME280;10713;51.912;4.494;2022-12-18T11:32:35;102424.88;;;-1.23;100.00
21111;BME280;10713;51.912;4.494;2022-12-18T11:35:19;102422.16;;;-1.26;100.00
21111;BME280;10713;51.912;4.494;2022-12-18T11:37:51;102420.38;;;-1.27;100.00
21111;BME280;10713;51.912;4.494;2022-12-18T11:40:23;102414.22;;;-1.30;100.00
21111;BME280;10713;51.912;4.494;2022-12-18T11:45:54;102405.78;;;-1.25;100.00
21111;BME280;10713;51.912;4.494;2022-12-18T11:48:27;102402.34;;;-1.24;100.00
21111;BME280;10713;51.912;4.494;2022-12-18T11:50:56;102390.06;;;-1.29;100.00
21111;BME280;10713;51.912;4.494;2022-12-18T11:53:25;102373.47;;;-1.34;100.00
21111;BME280;10713;51.912;4.494;2022-12-18T11:56:26;102361.34;;;-1.37;100.00
21111;BME280;10713;51.912;4.494;2022-12-18T12:18:09;102330.91;;;-0.90;100.00
21111;BME280;10713;51.912;4.494;2022-12-18T12:21:03;102331.19;;;-0.81;100.00
21111;BME280;10713;51.912;4.494;2022-12-18T12:26:30;102326.41;;;-0.69;100.00
21111;BME280;10713;51.912;4.494;2022-12-18T12:35:08;102315.50;;;-0.57;100.00
21111;BME280;10713;51.912;4.494;2022-12-18T12:40:30;102313.22;;;-0.46;100.00
21111;BME280;10713;51.912;4.494;2022-12-18T12:43:03;102302.34;;;-0.34;100.00
21111;BME280;10713;51.912;4.494;2022-12-18T12:46:06;102299.84;;;-0.30;100.00
21111;BME280;10713;51.912;4.494;2022-12-18T12:51:16;102299.16;;;-0.24;100.00
21111;BME280;10713;51.912;4.494;2022-12-18T12:53:42;102294.41;;;-0.39;100.00
21111;BME280;10713;51.912;4.494;2022-12-18T12:56:10;102295.59;;;-0.28;100.00
21111;BME280;10713;51.912;4.494;2022-12-18T12:58:46;102286.16;;;-0.26;100.00
21111;BME280;10713;51.912;4.494;2022-12-18T13:02:00;102277.50;;;-0.25;100.00
21111;BME280;10713;51.912;4.494;2022-12-18T13:04:52;102274.16;;;-0.20;100.00
21111;BME280;10713;51.912;4.494;2022-12-18T13:07:32;102261.16;;;-0.22;100.00
21111;BME280;10713;51.912;4.494;2022-12-18T13:13:08;102257.53;;;-0.27;100.00
21111;BME280;10713;51.912;4.494;2022-12-18T13:15:41;102261.00;;;-0.27;100.00
21111;BME280;10713;51.912;4.494;2022-12-18T13:23:23;102255.91;;;-0.24;100.00
21111;BME280;10713;51.912;4.494;2022-12-18T13:36:41;102220.97;;;-0.36;100.00
21111;BME280;10713;51.912;4.494;2022-12-18T13:41:47;102197.81;;;-0.29;100.00
21111;BME280;10713;51.912;4.494;2022-12-18T13:46:58;102207.38;;;-0.28;100.00
21111;BME280;10713;51.912;4.494;2022-12-18T13:49:28;102214.53;;;-0.17;100.00
21111;BME280;10713;51.912;4.494;2022-12-18T13:51:58;102203.41;;;-0.13;100.00
21111;BME280;10713;51.912;4.494;2022-12-18T13:54:27;102205.97;;;-0.15;100.00
21111;BME280;10713;51.912;4.494;2022-12-18T13:56:53;102198.19;;;-0.15;100.00
21111;BME280;10713;51.912;4.494;2022-12-18T13:59:22;102187.94;;;-0.09;100.00
21111;BME280;10713;51.912;4.494;2022-12-18T14:01:54;102193.31;;;-0.03;100.00
21111;BME280;10713;51.912;4.494;2022-12-18T14:04:34;102195.94;;;-0.01;100.00
21111;BME280;10713;51.912;4.494;2022-12-18T14:07:18;102194.72;;;0.19;100.00
21111;BME280;10713;51.912;4.494;2022-12-18T14:09:50;102196.25;;;0.46;100.00
21111;BME280;10713;51.912;4.494;2022-12-18T14:15:34;102191.22;;;0.92;100.00
21111;BME280;10713;51.912;4.494;2022-12-18T14:18:13;102185.88;;;0.85;100.00
21111;BME280;10713;51.912;4.494;2022-12-18T14:20:44;102178.63;;;0.71;100.00
21111;BME280;10713;51.912;4.494;2022-12-18T14:23:32;102176.28;;;0.81;100.00
21111;BME280;10713;51.912;4.494;2022-12-18T14:25:59;102171.84;;;0.77;100.00
21111;BME280;10713;51.912;4.494;2022-12-18T14:28:25;102151.19;;;0.44;100.00
21111;BME280;10713;51.912;4.494;2022-12-18T14:30:51;102144.19;;;0.41;100.00
21111;BME280;10713;51.912;4.494;2022-12-18T14:33:20;102146.50;;;0.29;100.00
21111;BME280;10713;51.912;4.494;2022-12-18T14:35:59;102140.97;;;0.52;100.00
21111;BME280;10713;51.912;4.494;2022-12-18T14:38:38;102148.72;;;0.50;100.00
21111;BME280;10713;51.912;4.494;2022-12-18T14:41:10;102134.13;;;0.57;100.00
21111;BME280;10713;51.912;4.494;2022-12-18T14:43:38;102119.47;;;0.59;100.00